sensor_id;sensor_type;location;lat;lon;timestamp;pressure;altitude;pressure_sealevel;temperature;humidity
40596;BME280;26304;48.794;9.820;2023-04-21T00:02:07;95958.88;;;16.32;49.07
40596;BME280;26304;48.794;9.820;2023-04-21T00:07:49;95973.09;;;16.31;49.40
40596;BME280;26304;48.794;9.820;2023-04-21T00:13:32;95977.97;;;16.33;49.56
40596;BME280;26304;48.794;9.820;2023-04-21T00:19:16;95967.09;;;16.31;49.43
40596;BME280;26304;48.794;9.820;2023-04-21T00:24:59;95968.94;;;16.30;49.26
40596;BME280;26304;48.794;9.820;2023-04-21T00:30:42;95952.81;;;16.28;49.30
40596;BME280;26304;48.794;9.820;2023-04-21T00:36:25;95942.34;;;16.28;49.43
40596;BME280;26304;48.794;9.820;2023-04-21T00:42:08;95939.34;;;16.26;49.48
40596;BME280;26304;48.794;9.820;2023-04-21T00:47:51;95917.97;;;16.24;49.94
40596;BME280;26304;48.794;9.820;2023-04-21T00:53:34;95927.72;;;16.27;48.87
40596;BME280;26304;48.794;9.820;2023-04-21T00:59:17;95911.22;;;16.23;49.61
40596;BME280;26304;48.794;9.820;2023-04-21T01:04:59;95907.06;;;16.22;49.60
40596;BME280;26304;48.794;9.820;2023-04-21T01:10:43;95904.06;;;16.20;49.93
40596;BME280;26304;48.794;9.820;2023-04-21T01:16:25;95911.94;;;16.20;49.41
40596;BME280;26304;48.794;9.820;2023-04-21T01:22:12;95907.84;;;16.26;49.36
40596;BME280;26304;48.794;9.820;2023-04-21T01:27:55;95898.13;;;17.08;48.00
40596;BME280;26304;48.794;9.820;2023-04-21T01:33:37;95905.34;;;18.22;45.82
40596;BME280;26304;48.794;9.820;2023-04-21T01:39:21;95902.19;;;18.74;45.07
40596;BME280;26304;48.794;9.820;2023-04-21T01:45:05;95896.69;;;19.28;43.91
40596;BME280;26304;48.794;9.820;2023-04-21T01:50:47;95898.13;;;19.92;43.04
40596;BME280;26304;48.794;9.820;2023-04-21T01:56:31;95895.47;;;20.38;42.29
40596;BME280;26304;48.794;9.820;2023-04-21T02:02:13;95889.81;;;20.36;43.13
40596;BME280;26304;48.794;9.820;2023-04-21T02:07:56;95902.72;;;20.68;42.26
40596;BME280;26304;48.794;9.820;2023-04-21T02:13:40;95887.53;;;21.07;41.80
40596;BME280;26304;48.794;9.820;2023-04-21T02:19:22;95874.50;;;21.19;41.91
40596;BME280;26304;48.794;9.820;2023-04-21T02:25:05;95868.13;;;21.17;42.07
40596;BME280;26304;48.794;9.820;2023-04-21T02:30:49;95875.50;;;21.56;41.54
40596;BME280;26304;48.794;9.820;2023-04-21T02:36:31;95893.06;;;21.94;41.20
40596;BME280;26304;48.794;9.820;2023-04-21T02:42:14;95887.56;;;22.68;39.74
40596;BME280;26304;48.794;9.820;2023-04-21T02:47:58;95872.84;;;22.47;40.55
40596;BME280;26304;48.794;9.820;2023-04-21T02:53:40;95870.53;;;22.49;40.25
40596;BME280;26304;48.794;9.820;2023-04-21T02:59:23;95870.59;;;22.66;40.24
40596;BME280;26304;48.794;9.820;2023-04-21T03:05:07;95871.13;;;22.77;40.15
40596;BME280;26304;48.794;9.820;2023-04-21T03:10:50;95875.06;;;22.29;40.95
40596;BME280;26304;48.794;9.820;2023-04-21T03:16:32;95875.13;;;21.82;42.06
40596;BME280;26304;48.794;9.820;2023-04-21T03:22:16;95876.25;;;21.30;42.98
40596;BME280;26304;48.794;9.820;2023-04-21T03:27:58;95865.78;;;20.95;43.59
40596;BME280;26304;48.794;9.820;2023-04-21T03:33:41;95864.97;;;20.98;43.78
40596;BME280;26304;48.794;9.820;2023-04-21T03:39:24;95871.75;;;20.68;44.61
40596;BME280;26304;48.794;9.820;2023-04-21T03:45:08;95864.53;;;20.38;44.94
40596;BME280;26304;48.794;9.820;2023-04-21T03:50:50;95867.03;;;20.14;45.33
40596;BME280;26304;48.794;9.820;2023-04-21T03:56:34;95860.84;;;19.90;46.23
40596;BME280;26304;48.794;9.820;2023-04-21T04:02:16;95874.56;;;19.71;46.87
40596;BME280;26304;48.794;9.820;2023-04-21T04:07:59;95887.38;;;19.69;46.76
40596;BME280;26304;48.794;9.820;2023-04-21T04:13:43;95905.88;;;19.65;47.14
40596;BME280;26304;48.794;9.820;2023-04-21T04:19:29;95903.19;;;19.76;47.15
40596;BME280;26304;48.794;9.820;2023-04-21T04:25:11;95917.53;;;19.68;47.31
40596;BME280;26304;48.794;9.820;2023-04-21T04:30:58;95931.22;;;19.48;47.80
40596;BME280;26304;48.794;9.820;2023-04-21T04:36:41;95919.63;;;19.35;47.56
40596;BME280;26304;48.794;9.820;2023-04-21T04:42:23;95901.63;;;19.26;48.04
40596;BME280;26304;48.794;9.820;2023-04-21T04:48:07;95920.09;;;19.19;48.27
40596;BME280;26304;48.794;9.820;2023-04-21T04:53:49;95934.47;;;19.07;48.43
40596;BME280;26304;48.794;9.820;2023-04-21T04:59:32;95937.88;;;19.00;48.14
40596;BME280;26304;48.794;9.820;2023-04-21T05:05:15;95932.22;;;18.98;48.43
40596;BME280;26304;48.794;9.820;2023-04-21T05:10:58;95929.28;;;18.89;49.52
40596;BME280;26304;48.794;9.820;2023-04-21T05:16:42;95930.03;;;18.86;48.85
40596;BME280;26304;48.794;9.820;2023-04-21T05:22:26;95926.25;;;18.83;49.12
40596;BME280;26304;48.794;9.820;2023-04-21T05:28:08;95927.81;;;18.63;49.97
40596;BME280;26304;48.794;9.820;2023-04-21T05:33:50;95928.56;;;18.67;49.47
40596;BME280;26304;48.794;9.820;2023-04-21T05:39:34;95934.94;;;18.66;49.62
40596;BME280;26304;48.794;9.820;2023-04-21T05:45:17;95931.19;;;18.60;48.95
40596;BME280;26304;48.794;9.820;2023-04-21T05:51:07;95933.88;;;18.52;49.19
40596;BME280;26304;48.794;9.820;2023-04-21T05:56:50;95930.13;;;18.46;49.17
40596;BME280;26304;48.794;9.820;2023-04-21T06:02:33;95946.31;;;18.41;49.31
40596;BME280;26304;48.794;9.820;2023-04-21T06:08:15;95944.81;;;18.37;48.84
40596;BME280;26304;48.794;9.820;2023-04-21T06:13:59;95933.91;;;18.31;49.69
40596;BME280;26304;48.794;9.820;2023-04-21T06:19:41;95930.91;;;18.29;49.44
40596;BME280;26304;48.794;9.820;2023-04-21T06:25:24;95919.25;;;18.26;48.73
40596;BME280;26304;48.794;9.820;2023-04-21T06:31:08;95906.84;;;18.20;49.81
40596;BME280;26304;48.794;9.820;2023-04-21T06:36:55;95900.47;;;18.13;49.18
40596;BME280;26304;48.794;9.820;2023-04-21T06:42:37;95898.59;;;18.14;48.95
40596;BME280;26304;48.794;9.820;2023-04-21T06:48:21;95886.59;;;18.09;49.13
40596;BME280;26304;48.794;9.820;2023-04-21T06:54:04;95883.56;;;18.07;48.96
40596;BME280;26304;48.794;9.820;2023-04-21T06:59:47;95883.94;;;18.06;49.69
40596;BME280;26304;48.794;9.820;2023-04-21T07:05:31;95877.19;;;18.05;49.36
40596;BME280;26304;48.794;9.820;2023-04-21T07:11:13;95879.06;;;18.01;49.61
40596;BME280;26304;48.794;9.820;2023-04-21T07:16:55;95876.81;;;17.99;48.94
40596;BME280;26304;48.794;9.820;2023-04-21T07:22:39;95875.69;;;17.96;49.02
40596;BME280;26304;48.794;9.820;2023-04-21T07:28:21;95880.59;;;17.91;50.08
40596;BME280;26304;48.794;9.820;2023-04-21T07:34:04;95891.09;;;17.87;49.65
40596;BME280;26304;48.794;9.820;2023-04-21T07:39:47;95896.34;;;17.87;49.74
40596;BME280;26304;48.794;9.820;2023-04-21T07:45:30;95889.56;;;17.86;49.75
40596;BME280;26304;48.794;9.820;2023-04-21T07:51:12;95884.69;;;17.85;49.53
40596;BME280;26304;48.794;9.820;2023-04-21T07:56:59;95877.59;;;17.89;49.63
40596;BME280;26304;48.794;9.820;2023-04-21T08:02:41;95886.59;;;17.88;49.15
40596;BME280;26304;48.794;9.820;2023-04-21T08:08:24;95868.91;;;17.85;49.34
40596;BME280;26304;48.794;9.820;2023-04-21T08:14:07;95875.69;;;17.86;49.18
40596;BME280;26304;48.794;9.820;2023-04-21T08:19:51;95874.53;;;17.83;49.17
40596;BME280;26304;48.794;9.820;2023-04-21T08:25:34;95860.66;;;17.83;49.25
40596;BME280;26304;48.794;9.820;2023-04-21T08:31:18;95863.28;;;17.75;49.26
40596;BME280;26304;48.794;9.820;2023-04-21T08:37:01;95877.19;;;17.79;48.85
40596;BME280;26304;48.794;9.820;2023-04-21T08:42:44;95874.94;;;17.78;48.73
40596;BME280;26304;48.794;9.820;2023-04-21T08:48:28;95887.34;;;17.77;48.83
40596;BME280;26304;48.794;9.820;2023-04-21T08:54:11;95892.56;;;17.74;48.76
40596;BME280;26304;48.794;9.820;2023-04-21T08:59:53;95880.56;;;17.73;49.45
40596;BME280;26304;48.794;9.820;2023-04-21T09:05:37;95892.19;;;17.75;49.26
40596;BME280;26304;48.794;9.820;2023-04-21T09:11:20;95894.09;;;17.75;49.00
40596;BME280;26304;48.794;9.820;2023-04-21T09:17:03;95892.56;;;17.74;48.99
40596;BME280;26304;48.794;9.820;2023-04-21T09:22:48;95884.31;;;17.72;48.77
40596;BME280;26304;48.794;9.820;2023-04-21T09:28:31;95879.06;;;17.72;49.19
40596;BME280;26304;48.794;9.820;2023-04-21T09:34:18;95874.53;;;17.72;48.47
40596;BME280;26304;48.794;9.820;2023-04-21T09:40:02;95865.19;;;17.71;48.34
40596;BME280;26304;48.794;9.820;2023-04-21T09:45:45;95873.81;;;17.72;48.32
40596;BME280;26304;48.794;9.820;2023-04-21T09:51:29;95862.53;;;17.71;48.83
40596;BME280;26304;48.794;9.820;2023-04-21T09:57:19;95866.31;;;17.77;48.13
40596;BME280;26304;48.794;9.820;2023-04-21T10:03:04;95860.66;;;17.68;49.72
40596;BME280;26304;48.794;9.820;2023-04-21T10:08:50;95860.66;;;17.86;48.82
40596;BME280;26304;48.794;9.820;2023-04-21T10:14:35;95855.03;;;17.88;48.65
40596;BME280;26304;48.794;9.820;2023-04-21T10:20:17;95841.53;;;17.89;48.60
40596;BME280;26304;48.794;9.820;2023-04-21T10:26:01;95846.00;;;17.96;49.31
40596;BME280;26304;48.794;9.820;2023-04-21T10:31:52;95847.16;;;17.99;48.75
40596;BME280;26304;48.794;9.820;2023-04-21T10:37:34;95849.78;;;17.95;49.28
40596;BME280;26304;48.794;9.820;2023-04-21T10:43:41;95838.50;;;18.05;49.47
40596;BME280;26304;48.794;9.820;2023-04-21T10:49:26;95833.19;;;18.12;50.07
40596;BME280;26304;48.794;9.820;2023-04-21T10:55:10;95829.06;;;18.22;50.61
40596;BME280;26304;48.794;9.820;2023-04-21T11:00:55;95824.84;;;18.39;51.30
40596;BME280;26304;48.794;9.820;2023-04-21T11:06:40;95818.88;;;18.35;50.47
40596;BME280;26304;48.794;9.820;2023-04-21T11:12:26;95814.31;;;18.39;50.71
40596;BME280;26304;48.794;9.820;2023-04-21T11:18:09;95798.91;;;18.45;51.12
40596;BME280;26304;48.794;9.820;2023-04-21T11:23:53;95809.78;;;18.50;50.56
40596;BME280;26304;48.794;9.820;2023-04-21T11:29:36;95807.97;;;18.37;50.97
40596;BME280;26304;48.794;9.820;2023-04-21T11:35:18;95809.50;;;18.23;51.23
40596;BME280;26304;48.794;9.820;2023-04-21T11:41:03;95808.41;;;18.10;51.91
40596;BME280;26304;48.794;9.820;2023-04-21T11:46:45;95802.41;;;18.06;52.43
40596;BME280;26304;48.794;9.820;2023-04-21T11:52:29;95802.41;;;18.09;52.05
40596;BME280;26304;48.794;9.820;2023-04-21T11:58:14;95797.91;;;17.99;52.44
40596;BME280;26304;48.794;9.820;2023-04-21T12:03:57;95796.41;;;17.98;51.99
40596;BME280;26304;48.794;9.820;2023-04-21T12:09:41;95787.00;;;18.04;51.83
40596;BME280;26304;48.794;9.820;2023-04-21T12:15:25;95786.63;;;18.09;51.85
40596;BME280;26304;48.794;9.820;2023-04-21T12:21:07;95778.69;;;18.27;52.61
40596;BME280;26304;48.794;9.820;2023-04-21T12:26:50;95791.06;;;18.30;52.46
40596;BME280;26304;48.794;9.820;2023-04-21T12:32:33;95780.44;;;18.56;52.45
40596;BME280;26304;48.794;9.820;2023-04-21T12:38:16;95768.84;;;18.39;52.38
40596;BME280;26304;48.794;9.820;2023-04-21T12:43:58;95779.00;;;18.33;52.49
40596;BME280;26304;48.794;9.820;2023-04-21T12:49:42;95771.78;;;18.51;52.23
40596;BME280;26304;48.794;9.820;2023-04-21T12:55:24;95778.19;;;18.50;52.09
40596;BME280;26304;48.794;9.820;2023-04-21T13:01:07;95761.16;;;18.69;51.23
40596;BME280;26304;48.794;9.820;2023-04-21T13:06:51;95759.38;;;18.52;51.76
40596;BME280;26304;48.794;9.820;2023-04-21T13:12:33;95758.19;;;18.64;51.72
40596;BME280;26304;48.794;9.820;2023-04-21T13:18:16;95748.84;;;18.52;51.73
40596;BME280;26304;48.794;9.820;2023-04-21T13:23:59;95749.91;;;18.62;51.55
40596;BME280;26304;48.794;9.820;2023-04-21T13:29:42;95750.34;;;18.57;51.81
40596;BME280;26304;48.794;9.820;2023-04-21T13:35:25;95742.44;;;18.57;51.54
40596;BME280;26304;48.794;9.820;2023-04-21T13:41:09;95737.91;;;18.61;51.39
40596;BME280;26304;48.794;9.820;2023-04-21T13:46:51;95726.25;;;18.58;51.60
40596;BME280;26304;48.794;9.820;2023-04-21T13:52:34;95729.97;;;18.68;52.60
40596;BME280;26304;48.794;9.820;2023-04-21T13:58:18;95717.94;;;18.63;51.78
40596;BME280;26304;48.794;9.820;2023-04-21T14:04:00;95718.34;;;18.58;51.72
40596;BME280;26304;48.794;9.820;2023-04-21T14:09:43;95703.31;;;18.59;51.17
40596;BME280;26304;48.794;9.820;2023-04-21T14:15:27;95701.81;;;18.61;51.37
40596;BME280;26304;48.794;9.820;2023-04-21T14:21:09;95699.53;;;18.63;51.08
40596;BME280;26304;48.794;9.820;2023-04-21T14:26:52;95692.72;;;18.69;50.80
40596;BME280;26304;48.794;9.820;2023-04-21T14:32:36;95687.84;;;18.68;51.21
40596;BME280;26304;48.794;9.820;2023-04-21T14:38:19;95687.09;;;18.67;51.19
40596;BME280;26304;48.794;9.820;2023-04-21T14:44:01;95681.03;;;18.74;51.13
40596;BME280;26304;48.794;9.820;2023-04-21T14:49:45;95686.28;;;18.74;51.10
40596;BME280;26304;48.794;9.820;2023-04-21T14:55:29;95682.56;;;18.72;51.03
40596;BME280;26304;48.794;9.820;2023-04-21T15:01:12;95693.09;;;18.72;51.24
40596;BME280;26304;48.794;9.820;2023-04-21T15:06:56;95684.81;;;18.73;51.13
40596;BME280;26304;48.794;9.820;2023-04-21T15:12:38;95678.03;;;18.72;51.00
40596;BME280;26304;48.794;9.820;2023-04-21T15:18:21;95690.44;;;18.75;50.86
40596;BME280;26304;48.794;9.820;2023-04-21T15:24:05;95684.00;;;18.76;50.84
40596;BME280;26304;48.794;9.820;2023-04-21T15:29:49;95688.16;;;18.77;50.70
40596;BME280;26304;48.794;9.820;2023-04-21T15:35:31;95686.63;;;18.80;50.68
40596;BME280;26304;48.794;9.820;2023-04-21T15:41:15;95679.47;;;18.80;50.43
40596;BME280;26304;48.794;9.820;2023-04-21T15:46:57;95680.59;;;18.83;50.77
40596;BME280;26304;48.794;9.820;2023-04-21T15:52:40;95685.50;;;18.84;50.63
40596;BME280;26304;48.794;9.820;2023-04-21T15:58:24;95676.44;;;18.85;50.25
40596;BME280;26304;48.794;9.820;2023-04-21T16:04:07;95676.84;;;18.87;50.40
40596;BME280;26304;48.794;9.820;2023-04-21T16:09:49;95668.53;;;18.89;50.49
40596;BME280;26304;48.794;9.820;2023-04-21T16:15:33;95674.53;;;18.90;50.67
40596;BME280;26304;48.794;9.820;2023-04-21T16:21:16;95663.66;;;18.87;50.39
40596;BME280;26304;48.794;9.820;2023-04-21T16:26:58;95674.97;;;18.84;50.42
40596;BME280;26304;48.794;9.820;2023-04-21T16:32:42;95669.69;;;18.81;50.78
40596;BME280;26304;48.794;9.820;2023-04-21T16:38:24;95667.50;;;18.72;51.05
40596;BME280;26304;48.794;9.820;2023-04-21T16:44:06;95656.13;;;18.90;51.05
40596;BME280;26304;48.794;9.820;2023-04-21T16:49:50;95654.56;;;18.96;50.75
40596;BME280;26304;48.794;9.820;2023-04-21T16:55:32;95656.03;;;18.97;51.14
40596;BME280;26304;48.794;9.820;2023-04-21T17:01:15;95656.41;;;18.99;51.27
40596;BME280;26304;48.794;9.820;2023-04-21T17:06:59;95660.22;;;18.91;50.90
40596;BME280;26304;48.794;9.820;2023-04-21T17:12:41;95657.31;;;18.74;51.37
40596;BME280;26304;48.794;9.820;2023-04-21T17:18:23;95670.50;;;18.74;51.00
40596;BME280;26304;48.794;9.820;2023-04-21T17:24:07;95673.53;;;18.69;51.25
40596;BME280;26304;48.794;9.820;2023-04-21T17:29:49;95672.81;;;18.65;51.50
40596;BME280;26304;48.794;9.820;2023-04-21T17:35:32;95669.81;;;18.63;51.64
40596;BME280;26304;48.794;9.820;2023-04-21T17:41:16;95671.72;;;18.59;51.42
40596;BME280;26304;48.794;9.820;2023-04-21T17:46:58;95672.13;;;18.57;51.65
40596;BME280;26304;48.794;9.820;2023-04-21T17:52:40;95676.66;;;18.53;51.72
40596;BME280;26304;48.794;9.820;2023-04-21T17:58:25;95675.91;;;18.52;51.95
40596;BME280;26304;48.794;9.820;2023-04-21T18:04:07;95674.41;;;18.51;51.79
40596;BME280;26304;48.794;9.820;2023-04-21T18:09:50;95698.44;;;18.61;51.95
40596;BME280;26304;48.794;9.820;2023-04-21T18:15:33;95707.72;;;18.76;52.25
40596;BME280;26304;48.794;9.820;2023-04-21T18:21:16;95709.56;;;18.83;51.71
40596;BME280;26304;48.794;9.820;2023-04-21T18:26:58;95707.63;;;18.91;52.27
40596;BME280;26304;48.794;9.820;2023-04-21T18:32:43;95704.53;;;19.03;51.91
40596;BME280;26304;48.794;9.820;2023-04-21T18:38:26;95710.91;;;19.05;52.55
40596;BME280;26304;48.794;9.820;2023-04-21T18:44:10;95713.09;;;19.18;52.65
40596;BME280;26304;48.794;9.820;2023-04-21T18:49:53;95721.59;;;19.33;52.07
40596;BME280;26304;48.794;9.820;2023-04-21T18:55:36;95724.25;;;19.33;52.50
40596;BME280;26304;48.794;9.820;2023-04-21T19:01:18;95712.13;;;19.39;52.12
40596;BME280;26304;48.794;9.820;2023-04-21T19:07:02;95728.03;;;19.28;52.28
40596;BME280;26304;48.794;9.820;2023-04-21T19:12:48;95732.59;;;19.24;52.00
40596;BME280;26304;48.794;9.820;2023-04-21T19:18:30;95728.56;;;19.12;52.36
40596;BME280;26304;48.794;9.820;2023-04-21T19:24:14;95740.16;;;19.18;50.89
40596;BME280;26304;48.794;9.820;2023-04-21T19:29:57;95755.44;;;18.89;51.40
40596;BME280;26304;48.794;9.820;2023-04-21T19:35:39;95750.31;;;18.64;50.81
40596;BME280;26304;48.794;9.820;2023-04-21T19:41:24;95754.47;;;18.58;51.42
40596;BME280;26304;48.794;9.820;2023-04-21T19:47:06;95751.50;;;18.48;51.40
40596;BME280;26304;48.794;9.820;2023-04-21T19:52:48;95748.38;;;18.68;51.17
40596;BME280;26304;48.794;9.820;2023-04-21T19:58:32;95747.59;;;18.78;50.70
40596;BME280;26304;48.794;9.820;2023-04-21T20:04:15;95748.69;;;18.81;50.94
40596;BME280;26304;48.794;9.820;2023-04-21T20:09:57;95749.44;;;18.81;50.89
40596;BME280;26304;48.794;9.820;2023-04-21T20:15:41;95739.31;;;18.80;50.82
40596;BME280;26304;48.794;9.820;2023-04-21T20:21:23;95748.72;;;18.77;50.88
40596;BME280;26304;48.794;9.820;2023-04-21T20:27:06;95737.44;;;18.77;51.21
40596;BME280;26304;48.794;9.820;2023-04-21T20:32:49;95731.06;;;18.74;51.36
40596;BME280;26304;48.794;9.820;2023-04-21T20:38:32;95732.94;;;18.74;51.28
40596;BME280;26304;48.794;9.820;2023-04-21T20:44:15;95731.06;;;18.74;51.21
40596;BME280;26304;48.794;9.820;2023-04-21T20:50:02;95732.13;;;18.80;50.94
40596;BME280;26304;48.794;9.820;2023-04-21T20:55:45;95726.19;;;18.69;51.37
40596;BME280;26304;48.794;9.820;2023-04-21T21:01:27;95729.97;;;18.68;51.11
40596;BME280;26304;48.794;9.820;2023-04-21T21:07:12;95732.59;;;18.68;51.12
40596;BME280;26304;48.794;9.820;2023-04-21T21:12:55;95733.75;;;18.63;51.39
40596;BME280;26304;48.794;9.820;2023-04-21T21:18:39;95735.63;;;18.63;51.24
40596;BME280;26304;48.794;9.820;2023-04-21T21:24:23;95735.66;;;18.59;51.41
40596;BME280;26304;48.794;9.820;2023-04-21T21:30:07;95742.78;;;18.59;51.31
40596;BME280;26304;48.794;9.820;2023-04-21T21:35:50;95740.56;;;18.57;51.50
40596;BME280;26304;48.794;9.820;2023-04-21T21:41:33;95733.78;;;18.56;51.11
40596;BME280;26304;48.794;9.820;2023-04-21T21:47:16;95734.19;;;18.55;51.48
40596;BME280;26304;48.794;9.820;2023-04-21T21:52:58;95731.94;;;18.53;51.39
40596;BME280;26304;48.794;9.820;2023-04-21T21:58:42;95728.91;;;18.55;51.36
40596;BME280;26304;48.794;9.820;2023-04-21T22:04:25;95726.31;;;18.51;51.21
40596;BME280;26304;48.794;9.820;2023-04-21T22:10:08;95730.81;;;18.50;51.19
40596;BME280;26304;48.794;9.820;2023-04-21T22:15:53;95740.97;;;18.48;51.44
40596;BME280;26304;48.794;9.820;2023-04-21T22:21:36;95739.84;;;18.49;51.40
40596;BME280;26304;48.794;9.820;2023-04-21T22:27:19;95740.59;;;18.50;50.84
40596;BME280;26304;48.794;9.820;2023-04-21T22:33:03;95746.59;;;18.50;51.51
40596;BME280;26304;48.794;9.820;2023-04-21T22:38:45;95749.22;;;18.50;51.39
40596;BME280;26304;48.794;9.820;2023-04-21T22:44:27;95759.75;;;18.50;50.86
40596;BME280;26304;48.794;9.820;2023-04-21T22:50:11;95752.63;;;18.51;51.21
40596;BME280;26304;48.794;9.820;2023-04-21T22:55:54;95751.88;;;18.50;50.61
40596;BME280;26304;48.794;9.820;2023-04-21T23:01:37;95745.13;;;18.49;50.78
40596;BME280;26304;48.794;9.820;2023-04-21T23:07:21;95752.25;;;18.52;51.03
40596;BME280;26304;48.794;9.820;2023-04-21T23:13:03;95747.75;;;18.49;50.70
40596;BME280;26304;48.794;9.820;2023-04-21T23:18:46;95737.59;;;18.48;50.88
40596;BME280;26304;48.794;9.820;2023-04-21T23:24:30;95724.44;;;18.48;51.29
40596;BME280;26304;48.794;9.820;2023-04-21T23:30:13;95719.56;;;18.46;50.86
40596;BME280;26304;48.794;9.820;2023-04-21T23:35:55;95727.47;;;18.46;50.58
40596;BME280;26304;48.794;9.820;2023-04-21T23:41:39;95723.31;;;18.45;51.06
40596;BME280;26304;48.794;9.820;2023-04-21T23:47:21;95731.22;;;18.45;51.05
40596;BME280;26304;48.794;9.820;2023-04-21T23:53:04;95724.06;;;18.46;50.82
40596;BME280;26304;48.794;9.820;2023-04-21T23:58:48;95729.34;;;18.42;50.83
